Time,TemperatureF,DewpointF,PressureIn,WindDirection,WindDirectionDegrees,WindSpeedMPH,WindSpeedGustMPH,Humidity,HourlyPrecipIn,Conditions,Clouds,dailyrainin,SoftwareType,DateUTC
2013-03-29 00:00:00,71.7,66.3,30.06,NE,43,1.0,10.0,83,0.00,,---,0.03,VWS V14.00,2013-03-29 10:00:00,
2013-03-29 00:05:00,71.8,66.4,30.06,NE,43,1.0,3.0,83,0.00,,---,0.00,VWS V14.00,2013-03-29 10:05:00,
2013-03-29 00:10:00,71.6,65.8,30.06,NE,43,0.0,4.0,82,0.00,,---,0.00,VWS V14.00,2013-03-29 10:10:00,
2013-03-29 00:15:00,71.5,66.1,30.05,NE,46,10.0,11.0,83,0.00,,---,0.00,VWS V14.00,2013-03-29 10:15:00,
2013-03-29 00:20:00,71.7,66.3,30.06,NW,319,0.0,11.0,83,0.00,,---,0.00,VWS V14.00,2013-03-29 10:20:00,
2013-03-29 00:25:00,71.7,65.9,30.05,NNW,329,2.0,11.0,82,0.00,,---,0.00,VWS V14.00,2013-03-29 10:25:00,
2013-03-29 00:30:00,71.6,65.8,30.05,NNW,332,0.0,11.0,82,0.00,,---,0.00,VWS V14.00,2013-03-29 10:30:00,
2013-03-29 00:35:00,71.7,65.9,30.05,East,80,0.0,4.0,82,0.00,,---,0.00,VWS V14.00,2013-03-29 10:35:00,
2013-03-29 00:40:00,71.8,66.0,30.05,ENE,59,1.0,10.0,82,0.00,,---,0.00,VWS V14.00,2013-03-29 10:40:00,
2013-03-29 00:45:00,71.9,66.1,30.05,NE,55,2.0,10.0,82,0.00,,---,0.00,VWS V14.00,2013-03-29 10:45:00,
2013-03-29 00:50:00,71.9,66.1,30.05,ENE,69,4.0,10.0,82,0.00,,---,0.00,VWS V14.00,2013-03-29 10:50:00,
2013-03-29 00:55:00,71.9,66.1,30.05,SSE,155,5.0,11.0,82,0.00,,---,0.00,VWS V14.00,2013-03-29 10:55:00,
2013-03-29 01:00:00,71.9,66.1,30.05,NE,49,2.0,11.0,82,0.00,,---,0.00,VWS V14.00,2013-03-29 11:00:00,
2013-03-29 01:05:00,71.8,66.0,30.05,NE,36,0.0,7.0,82,0.00,,---,0.00,VWS V14.00,2013-03-29 11:05:00,
2013-03-29 01:10:00,71.8,65.7,30.05,NE,34,0.0,7.0,81,0.00,,---,0.00,VWS V14.00,2013-03-29 11:10:00,
2013-03-29 01:15:00,71.7,65.6,30.05,NE,36,2.0,7.0,81,0.00,,---,0.00,VWS V14.00,2013-03-29 11:15:00,
2013-03-29 01:20:00,71.8,66.0,30.04,ENE,74,1.0,7.0,82,0.00,,---,0.00,VWS V14.00,2013-03-29 11:20:00,
2013-03-29 01:25:00,71.8,66.0,30.04,East,92,0.0,11.0,82,0.00,,---,0.00,VWS V14.00,2013-03-29 11:25:00,
2013-03-29 01:30:00,71.8,65.7,30.04,East,92,2.0,11.0,81,0.00,,---,0.00,VWS V14.00,2013-03-29 11:30:00,
2013-03-29 01:34:00,71.7,65.6,30.04,East,90,6.0,6.0,81,0.00,,---,0.00,VWS V14.00,2013-03-29 11:34:00,
2013-03-29 01:39:00,71.7,65.6,30.04,NE,49,8.0,8.0,81,0.00,,---,0.00,VWS V14.00,2013-03-29 11:39:00,
2013-03-29 01:44:00,71.7,65.6,30.04,East,82,2.0,8.0,81,0.00,,---,0.00,VWS V14.00,2013-03-29 11:44:00,
2013-03-29 01:49:00,71.7,65.6,30.03,ENE,74,3.0,8.0,81,0.00,,---,0.00,VWS V14.00,2013-03-29 11:49:00,
2013-03-29 01:54:00,71.7,65.9,30.03,NE,55,0.0,10.0,82,0.00,,---,0.00,VWS V14.00,2013-03-29 11:54:00,
2013-03-29 01:59:00,71.7,65.9,30.03,NE,42,3.0,10.0,82,0.00,,---,0.00,VWS V14.00,2013-03-29 11:59:00,
2013-03-29 02:04:00,71.7,65.9,30.03,NE,46,5.0,6.0,82,0.00,,---,0.00,VWS V14.00,2013-03-29 12:04:00,
2013-03-29 02:09:00,71.7,65.9,30.03,NE,46,3.0,6.0,82,0.00,,---,0.00,VWS V14.00,2013-03-29 12:09:00,
2013-03-29 02:14:00,71.5,65.7,30.03,NE,51,1.0,6.0,82,0.00,,---,0.00,VWS V14.00,2013-03-29 12:14:00,
2013-03-29 02:19:00,71.4,65.6,30.03,NE,49,2.0,6.0,82,0.00,,---,0.00,VWS V14.00,2013-03-29 12:19:00,
2013-03-29 02:24:00,71.4,65.6,30.02,NE,34,3.0,7.0,82,0.00,,---,0.00,VWS V14.00,2013-03-29 12:24:00,
2013-03-29 02:29:00,71.5,66.1,30.02,NE,50,8.0,10.0,83,0.00,,---,0.00,VWS V14.00,2013-03-29 12:29:00,
2013-03-29 02:34:00,71.4,65.6,30.02,NE,35,2.0,4.0,82,0.00,,---,0.00,VWS V14.00,2013-03-29 12:34:00,
2013-03-29 02:39:00,71.4,65.6,30.02,NE,40,0.0,6.0,82,0.00,,---,0.00,VWS V14.00,2013-03-29 12:39:00,
2013-03-29 02:44:00,71.4,65.6,30.02,NE,40,4.0,8.0,82,0.00,,---,0.00,VWS V14.00,2013-03-29 12:44:00,
2013-03-29 02:49:00,71.5,66.1,30.02,NE,36,0.0,8.0,83,0.00,,---,0.00,VWS V14.00,2013-03-29 12:49:00,
2013-03-29 02:54:00,71.5,66.1,30.01,NE,37,1.0,8.0,83,0.00,,---,0.00,VWS V14.00,2013-03-29 12:54:00,
2013-03-29 02:59:00,71.5,66.1,30.01,East,88,3.0,8.0,83,0.00,,---,0.01,VWS V14.00,2013-03-29 12:59:00,
2013-03-29 03:04:00,71.4,66.0,30.01,ENE,63,1.0,9.0,83,0.00,,---,0.01,VWS V14.00,2013-03-29 13:04:00,
2013-03-29 03:09:00,71.3,65.5,30.01,ENE,60,4.0,10.0,82,0.00,,---,0.01,VWS V14.00,2013-03-29 13:09:00,
2013-03-29 03:14:00,71.3,65.5,30.01,NE,49,10.0,10.0,82,0.00,,---,0.01,VWS V14.00,2013-03-29 13:14:00,
2013-03-29 03:19:00,71.3,65.5,30.01,North,11,1.0,10.0,82,0.00,,---,0.01,VWS V14.00,2013-03-29 13:19:00,
2013-03-29 03:24:00,71.3,65.5,30.01,ENE,58,4.0,12.0,82,0.00,,---,0.01,VWS V14.00,2013-03-29 13:24:00,
2013-03-29 03:29:00,71.4,66.0,30.01,ENE,74,3.0,12.0,83,0.00,,---,0.01,VWS V14.00,2013-03-29 13:29:00,
2013-03-29 03:34:00,71.4,66.0,30.02,ENE,72,3.0,5.0,83,0.00,,---,0.01,VWS V14.00,2013-03-29 13:34:00,
2013-03-29 03:39:00,71.3,65.9,30.01,NE,49,4.0,8.0,83,0.00,,---,0.01,VWS V14.00,2013-03-29 13:39:00,
2013-03-29 03:44:00,71.2,65.8,30.01,East,98,0.0,8.0,83,0.00,,---,0.01,VWS V14.00,2013-03-29 13:44:00,
2013-03-29 03:49:00,71.2,66.1,30.01,East,90,4.0,8.0,84,0.00,,---,0.01,VWS V14.00,2013-03-29 13:49:00,
2013-03-29 03:54:00,71.2,66.1,30.01,ENE,78,1.0,8.0,84,0.00,,---,0.01,VWS V14.00,2013-03-29 13:54:00,
2013-03-29 03:59:00,71.2,66.1,30.01,ENE,65,4.0,11.0,84,0.00,,---,0.01,VWS V14.00,2013-03-29 13:59:00,
2013-03-29 04:04:00,71.2,65.8,30.01,ENE,78,2.0,11.0,83,0.00,,---,0.01,VWS V14.00,2013-03-29 14:04:00,
2013-03-29 04:09:00,71.2,65.8,30.01,ENE,78,0.0,11.0,83,0.00,,---,0.01,VWS V14.00,2013-03-29 14:09:00,
2013-03-29 04:14:00,71.1,66.0,30.01,East,79,3.0,11.0,84,0.00,,---,0.01,VWS V14.00,2013-03-29 14:14:00,
2013-03-29 04:19:00,71.1,66.0,30.01,North,5,3.0,13.0,84,0.00,,---,0.01,VWS V14.00,2013-03-29 14:19:00,
2013-03-29 04:24:00,70.9,65.8,30.01,ENE,63,3.0,13.0,84,0.00,,---,0.01,VWS V14.00,2013-03-29 14:24:00,
2013-03-29 04:29:00,70.7,65.6,30.01,NE,51,0.0,13.0,84,0.00,,---,0.01,VWS V14.00,2013-03-29 14:29:00,
2013-03-29 04:34:00,70.7,65.6,30.01,NE,52,0.0,4.0,84,0.00,,---,0.01,VWS V14.00,2013-03-29 14:34:00,
2013-03-29 04:39:00,70.7,66.0,30.01,NE,49,7.0,10.0,85,0.00,,---,0.01,VWS V14.00,2013-03-29 14:39:00,
2013-03-29 04:44:00,70.6,65.9,30.01,ENE,60,8.0,11.0,85,0.00,,---,0.01,VWS V14.00,2013-03-29 14:44:00,
2013-03-29 04:49:00,70.7,66.0,30.01,ENE,57,4.0,13.0,85,0.00,,---,0.01,VWS V14.00,2013-03-29 14:49:00,
2013-03-29 04:54:00,70.7,66.0,30.01,ENE,59,2.0,13.0,85,0.00,,---,0.01,VWS V14.00,2013-03-29 14:54:00,
2013-03-29 04:59:00,70.7,66.0,30.01,ENE,61,1.0,13.0,85,0.00,,---,0.01,VWS V14.00,2013-03-29 14:59:00,
2013-03-29 05:04:00,70.6,65.9,30.01,ENE,60,2.0,6.0,85,0.00,,---,0.01,VWS V14.00,2013-03-29 15:04:00,
2013-03-29 05:09:00,70.6,65.9,30.01,SE,130,4.0,15.0,85,0.00,,---,0.01,VWS V14.00,2013-03-29 15:09:00,
2013-03-29 05:14:00,70.4,65.7,30.01,NE,53,2.0,15.0,85,0.00,,---,0.01,VWS V14.00,2013-03-29 15:14:00,
2013-03-29 05:19:00,70.2,65.8,30.02,ENE,67,6.0,15.0,86,0.00,,---,0.01,VWS V14.00,2013-03-29 15:19:00,
2013-03-29 05:24:00,70.2,65.8,30.02,NNE,32,0.0,15.0,86,0.00,,---,0.01,VWS V14.00,2013-03-29 15:24:00,
2013-03-29 05:29:00,70.4,66.3,30.02,NE,46,2.0,15.0,87,0.00,,---,0.01,VWS V14.00,2013-03-29 15:29:00,
2013-03-29 05:34:00,70.4,66.3,30.02,NE,51,13.0,15.0,87,0.00,,---,0.01,VWS V14.00,2013-03-29 15:34:00,
2013-03-29 05:39:00,70.2,65.8,30.02,ENE,61,7.0,15.0,86,0.00,,---,0.01,VWS V14.00,2013-03-29 15:39:00,
2013-03-29 05:44:00,70.3,66.2,30.02,ENE,63,8.0,15.0,87,0.00,,---,0.01,VWS V14.00,2013-03-29 15:44:00,
2013-03-29 05:49:00,70.2,65.8,30.03,SE,131,6.0,15.0,86,0.00,,---,0.01,VWS V14.00,2013-03-29 15:49:00,
2013-03-29 05:54:00,70.1,66.1,30.03,East,79,3.0,15.0,87,0.00,,---,0.01,VWS V14.00,2013-03-29 15:54:00,
2013-03-29 05:59:00,70.1,66.1,30.03,East,92,5.0,15.0,87,0.00,,---,0.01,VWS V14.00,2013-03-29 15:59:00,
2013-03-29 06:04:00,70.1,66.1,30.03,East,92,1.0,2.0,87,0.00,,---,0.01,VWS V14.00,2013-03-29 16:04:00,
2013-03-29 06:09:00,70.0,66.0,30.03,ENE,74,2.0,5.0,87,0.00,,---,0.01,VWS V14.00,2013-03-29 16:09:00,
2013-03-29 06:14:00,70.1,66.4,30.04,NE,38,1.0,8.0,88,0.00,,---,0.01,VWS V14.00,2013-03-29 16:14:00,
2013-03-29 06:19:00,70.1,66.1,30.04,NE,40,0.0,8.0,87,0.00,,---,0.01,VWS V14.00,2013-03-29 16:19:00,
2013-03-29 06:24:00,69.9,65.9,30.04,NE,44,0.0,8.0,87,0.00,,---,0.01,VWS V14.00,2013-03-29 16:24:00,
2013-03-29 06:29:00,70.0,66.0,30.04,NE,42,0.0,8.0,87,0.00,,---,0.01,VWS V14.00,2013-03-29 16:29:00,
2013-03-29 06:34:00,70.0,66.0,30.04,NNE,28,8.0,8.0,87,0.00,,---,0.01,VWS V14.00,2013-03-29 16:34:00,
2013-03-29 06:39:00,69.9,65.9,30.04,NE,47,10.0,10.0,87,0.00,,---,0.01,VWS V14.00,2013-03-29 16:39:00,
2013-03-29 06:44:00,70.0,66.0,30.04,ENE,77,3.0,10.0,87,0.00,,---,0.01,VWS V14.00,2013-03-29 16:44:00,
2013-03-29 06:49:00,70.1,66.1,30.05,East,88,3.0,10.0,87,0.00,,---,0.01,VWS V14.00,2013-03-29 16:49:00,
2013-03-29 06:54:00,69.9,65.5,30.05,ENE,67,6.0,10.0,86,0.00,,---,0.01,VWS V14.00,2013-03-29 16:54:00,
2013-03-29 06:59:00,69.5,65.1,30.05,NE,38,8.0,13.0,86,0.00,,---,0.01,VWS V14.00,2013-03-29 16:59:00,
2013-03-29 07:04:00,69.3,64.9,30.05,East,87,0.0,4.0,86,0.00,,---,0.01,VWS V14.00,2013-03-29 17:04:00,
2013-03-29 07:09:00,69.4,65.7,30.05,NE,46,5.0,8.0,88,0.00,,---,0.01,VWS V14.00,2013-03-29 17:09:00,
2013-03-29 07:14:00,69.5,65.8,30.06,NE,38,2.0,11.0,88,0.00,,---,0.01,VWS V14.00,2013-03-29 17:14:00,
2013-03-29 07:19:00,69.7,66.0,30.06,NNE,29,1.0,11.0,88,0.00,,---,0.01,VWS V14.00,2013-03-29 17:19:00,
2013-03-29 07:24:00,69.9,66.5,30.06,ENE,57,1.0,11.0,89,0.00,,---,0.01,VWS V14.00,2013-03-29 17:24:00,
2013-03-29 07:29:00,69.8,65.8,30.06,ENE,61,10.0,14.0,87,0.00,,---,0.01,VWS V14.00,2013-03-29 17:29:00,
2013-03-29 07:34:00,70.1,65.7,30.06,NNE,13,6.0,8.0,86,0.00,,---,0.01,VWS V14.00,2013-03-29 17:34:00,
2013-03-29 07:39:00,70.5,66.4,30.06,North,355,2.0,8.0,87,0.00,,---,0.01,VWS V14.00,2013-03-29 17:39:00,
2013-03-29 07:44:00,70.9,66.5,30.06,NE,47,3.0,8.0,86,0.00,,---,0.01,VWS V14.00,2013-03-29 17:44:00,
2013-03-29 07:49:00,71.1,66.7,30.06,NE,49,1.0,8.0,86,0.00,,---,0.01,VWS V14.00,2013-03-29 17:49:00,
2013-03-29 07:54:00,71.1,66.4,30.07,ENE,57,7.0,10.0,85,0.00,,---,0.01,VWS V14.00,2013-03-29 17:54:00,
2013-03-29 07:59:00,71.0,66.3,30.07,North,360,5.0,11.0,85,0.00,,---,0.01,VWS V14.00,2013-03-29 17:59:00,
2013-03-29 08:04:00,70.9,66.5,30.07,North,355,4.0,5.0,86,0.00,,---,0.01,VWS V14.00,2013-03-29 18:04:00,
2013-03-29 08:09:00,70.9,66.5,30.07,NE,49,6.0,7.0,86,0.00,,---,0.01,VWS V14.00,2013-03-29 18:09:00,
2013-03-29 08:14:00,70.9,66.5,30.07,ENE,57,2.0,11.0,86,0.00,,---,0.01,VWS V14.00,2013-03-29 18:14:00,
2013-03-29 08:19:00,71.0,65.9,30.07,NE,50,3.0,11.0,84,0.00,,---,0.01,VWS V14.00,2013-03-29 18:19:00,
2013-03-29 08:24:00,71.1,65.3,30.07,ENE,59,0.0,12.0,82,0.00,,---,0.01,VWS V14.00,2013-03-29 18:24:00,
2013-03-29 08:29:00,71.3,65.2,30.07,ENE,71,6.0,12.0,81,0.00,,---,0.01,VWS V14.00,2013-03-29 18:29:00,
2013-03-29 08:34:00,71.5,65.0,30.07,ENE,78,1.0,5.0,80,0.00,,---,0.01,VWS V14.00,2013-03-29 18:34:00,
2013-03-29 08:39:00,71.9,65.4,30.08,ENE,65,4.0,6.0,80,0.00,,---,0.01,VWS V14.00,2013-03-29 18:39:00,
2013-03-29 08:44:00,71.9,65.0,30.08,NE,53,2.0,11.0,79,0.00,,---,0.01,VWS V14.00,2013-03-29 18:44:00,
2013-03-29 08:49:00,72.0,65.1,30.08,East,94,2.0,11.0,79,0.00,,---,0.01,VWS V14.00,2013-03-29 18:49:00,
2013-03-29 08:54:00,72.0,65.5,30.08,ENE,65,3.0,11.0,80,0.00,,---,0.01,VWS V14.00,2013-03-29 18:54:00,
2013-03-29 08:59:00,72.1,65.6,30.08,SE,142,1.0,12.0,80,0.00,,---,0.01,VWS V14.00,2013-03-29 18:59:00,
2013-03-29 09:04:00,72.3,65.8,30.08,ENE,62,1.0,4.0,80,0.00,,---,0.01,VWS V14.00,2013-03-29 19:04:00,
2013-03-29 09:09:00,72.4,65.9,30.08,ENE,72,0.0,6.0,80,0.00,,---,0.01,VWS V14.00,2013-03-29 19:09:00,
2013-03-29 09:14:00,72.6,66.1,30.08,NE,40,1.0,7.0,80,0.00,,---,0.01,VWS V14.00,2013-03-29 19:14:00,
2013-03-29 09:19:00,72.9,66.7,30.08,NE,48,1.0,11.0,81,0.00,,---,0.01,VWS V14.00,2013-03-29 19:19:00,
2013-03-29 09:24:00,73.6,67.1,30.08,NE,40,4.0,11.0,80,0.00,,---,0.01,VWS V14.00,2013-03-29 19:24:00,
2013-03-29 09:29:00,74.0,66.3,30.08,ESE,107,0.0,11.0,77,0.00,,---,0.01,VWS V14.00,2013-03-29 19:29:00,
2013-03-29 09:34:00,74.0,66.0,30.08,East,87,5.0,10.0,76,0.00,,---,0.01,VWS V14.00,2013-03-29 19:34:00,
2013-03-29 09:39:00,73.9,65.9,30.07,ENE,65,2.0,11.0,76,0.00,,---,0.01,VWS V14.00,2013-03-29 19:39:00,
2013-03-29 09:44:00,73.8,65.8,30.07,NNE,25,1.0,13.0,76,0.00,,---,0.01,VWS V14.00,2013-03-29 19:44:00,
2013-03-29 09:49:00,74.1,66.4,30.07,NE,44,5.0,13.0,77,0.00,,---,0.01,VWS V14.00,2013-03-29 19:49:00,
2013-03-29 09:54:00,73.8,66.5,30.07,SE,133,7.0,13.0,78,0.00,,---,0.01,VWS V14.00,2013-03-29 19:54:00,
2013-03-29 09:59:00,73.7,66.8,30.07,North,5,1.0,13.0,79,0.00,,---,0.01,VWS V14.00,2013-03-29 19:59:00,
2013-03-29 10:04:00,73.8,66.5,30.07,NNE,26,5.0,7.0,78,0.00,,---,0.01,VWS V14.00,2013-03-29 20:04:00,
2013-03-29 10:09:00,73.8,66.5,30.07,ENE,60,1.0,7.0,78,0.00,,---,0.01,VWS V14.00,2013-03-29 20:09:00,
2013-03-29 10:14:00,73.5,65.9,30.07,NE,35,6.0,10.0,77,0.00,,---,0.01,VWS V14.00,2013-03-29 20:14:00,
2013-03-29 10:19:00,73.8,66.5,30.07,ENE,63,5.0,10.0,78,0.00,,---,0.01,VWS V14.00,2013-03-29 20:19:00,
2013-03-29 10:24:00,73.9,66.6,30.07,NE,41,3.0,10.0,78,0.00,,---,0.01,VWS V14.00,2013-03-29 20:24:00,
2013-03-29 10:29:00,74.0,66.0,30.07,East,80,4.0,16.0,76,0.00,,---,0.01,VWS V14.00,2013-03-29 20:29:00,
2013-03-29 10:34:00,74.0,66.3,30.07,NE,38,3.0,7.0,77,0.00,,---,0.01,VWS V14.00,2013-03-29 20:34:00,
2013-03-29 10:39:00,74.0,66.7,30.06,East,90,4.0,8.0,78,0.00,,---,0.01,VWS V14.00,2013-03-29 20:39:00,
2013-03-29 10:44:00,73.6,66.3,30.07,ENE,58,7.0,10.0,78,0.00,,---,0.01,VWS V14.00,2013-03-29 20:44:00,
2013-03-29 10:49:00,73.1,65.8,30.06,North,11,3.0,10.0,78,0.00,,---,0.01,VWS V14.00,2013-03-29 20:49:00,
2013-03-29 10:54:00,72.8,65.9,30.06,NE,49,5.0,10.0,79,0.00,,---,0.01,VWS V14.00,2013-03-29 20:54:00,
2013-03-29 10:59:00,72.8,65.9,30.06,ENE,69,0.0,13.0,79,0.00,,---,0.01,VWS V14.00,2013-03-29 20:59:00,
2013-03-29 11:04:00,72.9,66.4,30.06,North,355,2.0,9.0,80,0.00,,---,0.01,VWS V14.00,2013-03-29 21:04:00,
2013-03-29 11:09:00,73.4,66.9,30.06,ENE,66,5.0,9.0,80,0.00,,---,0.01,VWS V14.00,2013-03-29 21:09:00,
2013-03-29 11:14:00,74.1,67.5,30.06,ENE,58,0.0,9.0,80,0.00,,---,0.01,VWS V14.00,2013-03-29 21:14:00,
2013-03-29 11:19:00,74.8,66.7,30.06,NE,48,1.0,11.0,76,0.00,,---,0.01,VWS V14.00,2013-03-29 21:19:00,
2013-03-29 11:24:00,74.8,66.7,30.06,ENE,61,1.0,11.0,76,0.00,,---,0.01,VWS V14.00,2013-03-29 21:24:00,
2013-03-29 11:29:00,74.7,66.3,30.06,ENE,65,1.0,12.0,75,0.00,,---,0.01,VWS V14.00,2013-03-29 21:29:00,
2013-03-29 11:34:00,74.9,66.4,30.06,NE,54,2.0,7.0,75,0.00,,---,0.01,VWS V14.00,2013-03-29 21:34:00,
2013-03-29 11:39:00,75.1,66.2,30.06,NNE,24,4.0,9.0,74,0.00,,---,0.01,VWS V14.00,2013-03-29 21:39:00,
2013-03-29 11:44:00,74.9,66.1,30.06,East,92,1.0,9.0,74,0.00,,---,0.01,VWS V14.00,2013-03-29 21:44:00,
2013-03-29 11:49:00,74.6,65.8,30.06,ESE,109,1.0,11.0,74,0.00,,---,0.01,VWS V14.00,2013-03-29 21:49:00,
2013-03-29 11:54:00,74.5,65.7,30.05,NE,46,3.0,11.0,74,0.00,,---,0.01,VWS V14.00,2013-03-29 21:54:00,
2013-03-29 11:59:00,74.4,66.0,30.06,NNE,26,2.0,11.0,75,0.00,,---,0.01,VWS V14.00,2013-03-29 21:59:00,
2013-03-29 12:04:00,74.3,65.1,30.06,ESE,121,5.0,10.0,73,0.00,,---,0.01,VWS V14.00,2013-03-29 22:04:00,
2013-03-29 12:09:00,74.3,65.9,30.05,ESE,109,4.0,10.0,75,0.00,,---,0.01,VWS V14.00,2013-03-29 22:09:00,
2013-03-29 12:14:00,74.6,66.2,30.05,NE,54,2.0,10.0,75,0.00,,---,0.01,VWS V14.00,2013-03-29 22:14:00,
2013-03-29 12:19:00,74.7,65.9,30.05,NE,44,2.0,10.0,74,0.00,,---,0.01,VWS V14.00,2013-03-29 22:19:00,
2013-03-29 12:24:00,74.8,66.3,30.05,NE,34,1.0,10.0,75,0.00,,---,0.01,VWS V14.00,2013-03-29 22:24:00,
2013-03-29 12:29:00,74.6,65.8,30.05,ENE,59,4.0,10.0,74,0.00,,---,0.01,VWS V14.00,2013-03-29 22:29:00,
2013-03-29 12:34:00,74.5,65.7,30.05,NE,39,3.0,3.0,74,0.00,,---,0.01,VWS V14.00,2013-03-29 22:34:00,
2013-03-29 12:39:00,74.4,65.6,30.05,NE,46,2.0,7.0,74,0.00,,---,0.01,VWS V14.00,2013-03-29 22:39:00,
2013-03-29 12:44:00,74.2,65.4,30.05,NNW,345,1.0,12.0,74,0.00,,---,0.01,VWS V14.00,2013-03-29 22:44:00,
2013-03-29 12:49:00,74.0,65.2,30.05,NNE,24,8.0,12.0,74,0.00,,---,0.01,VWS V14.00,2013-03-29 22:49:00,
2013-03-29 12:54:00,73.9,65.1,30.04,East,92,5.0,12.0,74,0.00,,---,0.01,VWS V14.00,2013-03-29 22:54:00,
2013-03-29 12:59:00,74.0,65.2,30.04,ESE,117,2.0,12.0,74,0.00,,---,0.01,VWS V14.00,2013-03-29 22:59:00,
2013-03-29 13:04:00,74.2,65.8,30.04,East,88,3.0,4.0,75,0.00,,---,0.01,VWS V14.00,2013-03-29 23:04:00,
2013-03-29 13:09:00,74.2,65.8,30.03,NNE,32,5.0,12.0,75,0.00,,---,0.01,VWS V14.00,2013-03-29 23:09:00,
2013-03-29 13:14:00,74.1,65.3,30.04,NNE,24,3.0,12.0,74,0.00,,---,0.01,VWS V14.00,2013-03-29 23:14:00,
2013-03-29 13:19:00,74.1,65.7,30.03,NE,51,5.0,12.0,75,0.00,,---,0.01,VWS V14.00,2013-03-29 23:19:00,
2013-03-29 13:24:00,73.8,65.0,30.03,ENE,66,8.0,12.0,74,0.00,,---,0.01,VWS V14.00,2013-03-29 23:24:00,
2013-03-29 13:29:00,73.8,65.4,30.03,NE,45,6.0,12.0,75,0.00,,---,0.01,VWS V14.00,2013-03-29 23:29:00,
2013-03-29 13:34:00,74.1,65.7,30.03,NE,50,3.0,7.0,75,0.00,,---,0.01,VWS V14.00,2013-03-29 23:34:00,
2013-03-29 13:39:00,74.3,65.5,30.03,ENE,73,4.0,7.0,74,0.00,,---,0.01,VWS V14.00,2013-03-29 23:39:00,
2013-03-29 13:44:00,74.3,65.5,30.03,ESE,111,2.0,8.0,74,0.00,,---,0.01,VWS V14.00,2013-03-29 23:44:00,
2013-03-29 13:49:00,74.3,65.5,30.02,NE,51,3.0,8.0,74,0.00,,---,0.01,VWS V14.00,2013-03-29 23:49:00,
2013-03-29 13:54:00,74.2,65.4,30.02,ENE,57,3.0,8.0,74,0.00,,---,0.01,VWS V14.00,2013-03-29 23:54:00,
2013-03-29 13:59:00,74.1,64.9,30.02,NE,34,1.0,11.0,73,0.00,,---,0.01,VWS V14.00,2013-03-29 23:59:00,
2013-03-29 14:04:00,74.0,64.8,30.02,ENE,65,3.0,6.0,73,0.00,,---,0.01,VWS V14.00,2013-03-30 00:04:00,
2013-03-29 14:09:00,74.0,65.2,30.01,NE,51,0.0,11.0,74,0.00,,---,0.01,VWS V14.00,2013-03-30 00:09:00,
2013-03-29 14:14:00,74.1,65.3,30.01,ESE,111,1.0,12.0,74,0.00,,---,0.01,VWS V14.00,2013-03-30 00:14:00,
2013-03-29 14:19:00,74.4,65.2,30.01,ENE,61,4.0,12.0,73,0.00,,---,0.01,VWS V14.00,2013-03-30 00:19:00,
2013-03-29 14:24:00,74.6,65.8,30.01,North,5,4.0,13.0,74,0.00,,---,0.02,VWS V14.00,2013-03-30 00:24:00,
2013-03-29 14:29:00,75.0,65.8,30.01,ENE,65,3.0,13.0,73,0.00,,---,0.02,VWS V14.00,2013-03-30 00:29:00,
2013-03-29 14:34:00,75.1,65.1,30.01,ENE,59,0.0,7.0,71,0.00,,---,0.02,VWS V14.00,2013-03-30 00:34:00,
2013-03-29 14:39:00,75.3,66.4,30.01,NE,36,2.0,10.0,74,0.00,,---,0.02,VWS V14.00,2013-03-30 00:39:00,
2013-03-29 14:44:00,75.6,65.9,30.01,ENE,74,3.0,10.0,72,0.00,,---,0.02,VWS V14.00,2013-03-30 00:44:00,
2013-03-29 14:49:00,75.4,65.3,30.01,NNE,13,1.0,10.0,71,0.00,,---,0.02,VWS V14.00,2013-03-30 00:49:00,
2013-03-29 14:54:00,75.4,64.9,30.01,East,81,4.0,13.0,70,0.00,,---,0.02,VWS V14.00,2013-03-30 00:54:00,
2013-03-29 14:59:00,75.6,65.9,30.00,North,360,1.0,13.0,72,0.00,,---,0.02,VWS V14.00,2013-03-30 00:59:00,
2013-03-29 15:04:00,75.5,65.4,30.01,NNE,30,6.0,8.0,71,0.00,,---,0.02,VWS V14.00,2013-03-30 01:04:00,
2013-03-29 15:09:00,75.2,65.2,30.01,NNE,24,1.0,10.0,71,0.00,,---,0.02,VWS V14.00,2013-03-30 01:09:00,
2013-03-29 15:14:00,75.2,65.6,30.00,ENE,57,2.0,10.0,72,0.00,,---,0.02,VWS V14.00,2013-03-30 01:14:00,
2013-03-29 15:19:00,75.3,65.7,30.01,ENE,65,0.0,10.0,72,0.00,,---,0.02,VWS V14.00,2013-03-30 01:19:00,
2013-03-29 15:24:00,75.3,65.3,30.00,East,88,3.0,10.0,71,0.00,,---,0.02,VWS V14.00,2013-03-30 01:24:00,
2013-03-29 15:29:00,75.1,65.5,30.00,NNE,15,5.0,10.0,72,0.00,,---,0.02,VWS V14.00,2013-03-30 01:29:00,
2013-03-29 15:34:00,74.9,65.3,30.00,ENE,67,1.0,9.0,72,0.00,,---,0.02,VWS V14.00,2013-03-30 01:34:00,
2013-03-29 15:39:00,74.8,65.2,30.01,ENE,71,2.0,9.0,72,0.00,,---,0.02,VWS V14.00,2013-03-30 01:39:00,
2013-03-29 15:44:00,74.8,65.2,30.01,NE,42,1.0,9.0,72,0.00,,---,0.02,VWS V14.00,2013-03-30 01:44:00,
2013-03-29 15:49:00,74.6,65.0,30.01,NE,38,2.0,9.0,72,0.00,,---,0.02,VWS V14.00,2013-03-30 01:49:00,
2013-03-29 15:54:00,74.1,64.5,30.01,ENE,57,1.0,9.0,72,0.00,,---,0.02,VWS V14.00,2013-03-30 01:54:00,
2013-03-29 15:59:00,73.6,64.0,30.01,NE,44,2.0,10.0,72,0.00,,---,0.02,VWS V14.00,2013-03-30 01:59:00,
2013-03-29 16:04:00,73.3,63.7,30.01,NNE,16,4.0,5.0,72,0.00,,---,0.02,VWS V14.00,2013-03-30 02:04:00,
2013-03-29 16:09:00,73.1,63.9,30.01,NNE,23,4.0,7.0,73,0.00,,---,0.02,VWS V14.00,2013-03-30 02:09:00,
2013-03-29 16:14:00,73.2,64.0,30.01,NNE,23,0.0,7.0,73,0.00,,---,0.02,VWS V14.00,2013-03-30 02:14:00,
2013-03-29 16:19:00,73.2,64.0,30.01,NE,46,0.0,7.0,73,0.00,,---,0.02,VWS V14.00,2013-03-30 02:19:00,
2013-03-29 16:24:00,73.0,64.2,30.01,NE,55,1.0,7.0,74,0.00,,---,0.02,VWS V14.00,2013-03-30 02:24:00,
2013-03-29 16:29:00,72.7,63.9,30.01,NE,35,3.0,8.0,74,0.00,,---,0.02,VWS V14.00,2013-03-30 02:29:00,
2013-03-29 16:34:00,72.4,63.7,30.01,NE,42,0.0,1.0,74,0.00,,---,0.02,VWS V14.00,2013-03-30 02:34:00,
2013-03-29 16:39:00,72.4,64.0,30.01,NNE,22,0.0,8.0,75,0.00,,---,0.02,VWS V14.00,2013-03-30 02:39:00,
2013-03-29 16:44:00,72.5,64.1,30.01,NNE,30,5.0,10.0,75,0.00,,---,0.02,VWS V14.00,2013-03-30 02:44:00,
2013-03-29 16:49:00,72.3,63.9,30.01,NNE,21,0.0,10.0,75,0.00,,---,0.02,VWS V14.00,2013-03-30 02:49:00,
2013-03-29 16:54:00,72.3,63.6,30.01,NNE,31,1.0,10.0,74,0.00,,---,0.02,VWS V14.00,2013-03-30 02:54:00,
2013-03-29 16:59:00,72.2,63.8,30.01,NE,51,4.0,11.0,75,0.00,,---,0.02,VWS V14.00,2013-03-30 02:59:00,
2013-03-29 17:04:00,72.1,63.8,30.01,ENE,71,1.0,7.0,75,0.00,,---,0.02,VWS V14.00,2013-03-30 03:04:00,
2013-03-29 17:09:00,72.1,63.8,30.01,ENE,68,7.0,8.0,75,0.00,,---,0.02,VWS V14.00,2013-03-30 03:09:00,
2013-03-29 17:14:00,72.1,63.8,30.01,NNE,20,1.0,8.0,75,0.00,,---,0.02,VWS V14.00,2013-03-30 03:14:00,
2013-03-29 17:19:00,72.1,63.8,30.01,ENE,71,3.0,8.0,75,0.00,,---,0.02,VWS V14.00,2013-03-30 03:19:00,
2013-03-29 17:24:00,72.0,63.3,30.01,ENE,76,0.0,8.0,74,0.00,,---,0.02,VWS V14.00,2013-03-30 03:24:00,
2013-03-29 17:29:00,72.1,63.8,30.01,NE,49,2.0,9.0,75,0.00,,---,0.02,VWS V14.00,2013-03-30 03:29:00,
2013-03-29 17:34:00,72.0,63.7,30.01,NE,38,8.0,8.0,75,0.00,,---,0.02,VWS V14.00,2013-03-30 03:34:00,
2013-03-29 17:39:00,71.9,63.5,30.02,NE,42,3.0,9.0,75,0.00,,---,0.02,VWS V14.00,2013-03-30 03:39:00,
2013-03-29 17:44:00,71.9,63.5,30.02,North,360,4.0,9.0,75,0.00,,---,0.02,VWS V14.00,2013-03-30 03:44:00,
2013-03-29 17:49:00,72.0,63.7,30.02,North,5,2.0,9.0,75,0.00,,---,0.02,VWS V14.00,2013-03-30 03:49:00,
2013-03-29 17:54:00,71.9,63.5,30.02,NNE,31,8.0,9.0,75,0.00,,---,0.02,VWS V14.00,2013-03-30 03:54:00,
2013-03-29 17:59:00,71.9,63.5,30.02,NNE,32,2.0,9.0,75,0.00,,---,0.02,VWS V14.00,2013-03-30 03:59:00,
2013-03-29 18:00:00,71.9,63.5,30.02,NNE,32,0.0,9.0,75,0.00,,---,0.02,VWS V14.00,2013-03-30 04:00:00,
2013-03-29 18:05:00,71.9,63.5,30.02,NE,36,1.0,6.0,75,0.00,,---,0.02,VWS V14.00,2013-03-30 04:05:00,
2013-03-29 18:10:00,71.8,63.1,30.02,ENE,65,1.0,8.0,74,0.00,,---,0.02,VWS V14.00,2013-03-30 04:10:00,
2013-03-29 18:15:00,71.8,63.1,30.02,ENE,66,2.0,8.0,74,0.00,,---,0.02,VWS V14.00,2013-03-30 04:15:00,
2013-03-29 18:20:00,71.8,63.5,30.03,ENE,72,3.0,8.0,75,0.00,,---,0.02,VWS V14.00,2013-03-30 04:20:00,
2013-03-29 18:25:00,71.8,63.5,30.03,ENE,72,0.0,8.0,75,0.00,,---,0.02,VWS V14.00,2013-03-30 04:25:00,
2013-03-29 18:30:00,71.8,63.5,30.03,ENE,72,1.0,8.0,75,0.00,,---,0.02,VWS V14.00,2013-03-30 04:30:00,
2013-03-29 18:35:00,71.8,63.5,30.03,ENE,71,1.0,4.0,75,0.00,,---,0.02,VWS V14.00,2013-03-30 04:35:00,
2013-03-29 18:40:00,71.7,63.4,30.03,ENE,68,3.0,6.0,75,0.00,,---,0.02,VWS V14.00,2013-03-30 04:40:00,
2013-03-29 18:45:00,71.6,63.3,30.03,ENE,68,0.0,6.0,75,0.00,,---,0.02,VWS V14.00,2013-03-30 04:45:00,
2013-03-29 18:50:00,71.6,63.3,30.04,ENE,68,1.0,6.0,75,0.00,,---,0.02,VWS V14.00,2013-03-30 04:50:00,
2013-03-29 18:55:00,71.6,63.3,30.04,ENE,68,0.0,6.0,75,0.00,,---,0.02,VWS V14.00,2013-03-30 04:55:00,
2013-03-29 19:00:00,71.5,63.2,30.03,ENE,68,2.0,6.0,75,0.00,,---,0.02,VWS V14.00,2013-03-30 05:00:00,
2013-03-29 19:05:00,71.6,63.3,30.04,ENE,68,0.0,3.0,75,0.00,,---,0.02,VWS V14.00,2013-03-30 05:05:00,
2013-03-29 19:10:00,71.5,63.2,30.04,ENE,68,1.0,3.0,75,0.00,,---,0.02,VWS V14.00,2013-03-30 05:10:00,
2013-03-29 19:15:00,71.5,63.2,30.04,ENE,65,2.0,5.0,75,0.00,,---,0.02,VWS V14.00,2013-03-30 05:15:00,
2013-03-29 19:20:00,71.5,63.2,30.04,ENE,65,4.0,5.0,75,0.00,,---,0.02,VWS V14.00,2013-03-30 05:20:00,
2013-03-29 19:25:00,71.5,63.5,30.04,ENE,63,7.0,7.0,76,0.00,,---,0.02,VWS V14.00,2013-03-30 05:25:00,
2013-03-29 19:30:00,71.5,63.5,30.04,NE,47,2.0,7.0,76,0.00,,---,0.02,VWS V14.00,2013-03-30 05:30:00,
2013-03-29 19:35:00,71.5,63.5,30.04,NE,47,1.0,5.0,76,0.00,,---,0.02,VWS V14.00,2013-03-30 05:35:00,
2013-03-29 19:40:00,71.5,63.5,30.04,NE,49,3.0,5.0,76,0.00,,---,0.02,VWS V14.00,2013-03-30 05:40:00,
2013-03-29 19:45:00,71.5,63.5,30.04,ENE,69,1.0,5.0,76,0.00,,---,0.02,VWS V14.00,2013-03-30 05:45:00,
2013-03-29 19:50:00,71.4,63.5,30.04,ENE,63,3.0,6.0,76,0.00,,---,0.02,VWS V14.00,2013-03-30 05:50:00,
2013-03-29 19:55:00,71.4,63.5,30.05,ENE,65,2.0,7.0,76,0.00,,---,0.02,VWS V14.00,2013-03-30 05:55:00,
2013-03-29 20:00:00,71.4,63.5,30.05,ENE,65,5.0,7.0,76,0.00,,---,0.02,VWS V14.00,2013-03-30 06:00:00,
2013-03-29 20:05:00,71.3,63.0,30.05,ENE,63,0.0,6.0,75,0.00,,---,0.02,VWS V14.00,2013-03-30 06:05:00,
2013-03-29 20:10:00,71.3,63.0,30.05,ENE,63,0.0,6.0,75,0.00,,---,0.02,VWS V14.00,2013-03-30 06:10:00,
2013-03-29 20:15:00,71.4,63.1,30.05,ENE,63,0.0,6.0,75,0.00,,---,0.02,VWS V14.00,2013-03-30 06:15:00,
2013-03-29 20:20:00,71.4,63.1,30.05,ENE,63,0.0,6.0,75,0.00,,---,0.02,VWS V14.00,2013-03-30 06:20:00,
2013-03-29 20:25:00,71.4,63.1,30.06,ENE,63,2.0,6.0,75,0.00,,---,0.02,VWS V14.00,2013-03-30 06:25:00,
2013-03-29 20:30:00,71.4,63.1,30.06,ENE,63,0.0,6.0,75,0.00,,---,0.02,VWS V14.00,2013-03-30 06:30:00,
2013-03-29 20:35:00,71.4,63.1,30.06,ENE,63,1.0,4.0,75,0.00,,---,0.02,VWS V14.00,2013-03-30 06:35:00,
2013-03-29 20:40:00,71.4,63.1,30.06,ENE,63,1.0,4.0,75,0.00,,---,0.02,VWS V14.00,2013-03-30 06:40:00,
2013-03-29 20:45:00,71.4,63.1,30.06,ENE,63,0.0,4.0,75,0.00,,---,0.02,VWS V14.00,2013-03-30 06:45:00,
2013-03-29 20:50:00,71.4,63.1,30.06,ENE,63,1.0,4.0,75,0.00,,---,0.02,VWS V14.00,2013-03-30 06:50:00,
2013-03-29 20:55:00,71.4,63.1,30.06,ENE,63,0.0,4.0,75,0.00,,---,0.02,VWS V14.00,2013-03-30 06:55:00,
2013-03-29 21:00:00,71.4,63.1,30.06,ENE,63,0.0,4.0,75,0.00,,---,0.02,VWS V14.00,2013-03-30 07:00:00,
2013-03-29 21:05:00,71.3,63.0,30.07,ENE,63,3.0,3.0,75,0.00,,---,0.02,VWS V14.00,2013-03-30 07:05:00,
2013-03-29 21:10:00,71.4,63.5,30.06,ENE,63,0.0,3.0,76,0.00,,---,0.02,VWS V14.00,2013-03-30 07:10:00,
2013-03-29 21:15:00,71.4,63.1,30.06,ENE,63,2.0,4.0,75,0.00,,---,0.02,VWS V14.00,2013-03-30 07:15:00,
2013-03-29 21:20:00,71.5,63.5,30.07,ENE,63,0.0,4.0,76,0.00,,---,0.02,VWS V14.00,2013-03-30 07:20:00,
2013-03-29 21:25:00,71.5,63.5,30.07,ENE,63,0.0,4.0,76,0.00,,---,0.02,VWS V14.00,2013-03-30 07:25:00,
2013-03-29 21:30:00,71.5,63.5,30.07,ENE,63,0.0,4.0,76,0.00,,---,0.02,VWS V14.00,2013-03-30 07:30:00,
2013-03-29 21:35:00,71.5,63.5,30.07,ENE,63,0.0,0.0,76,0.00,,---,0.02,VWS V14.00,2013-03-30 07:35:00,
2013-03-29 21:40:00,71.5,63.5,30.07,ENE,63,0.0,3.0,76,0.00,,---,0.02,VWS V14.00,2013-03-30 07:40:00,
2013-03-29 21:45:00,71.4,63.5,30.07,ENE,63,2.0,3.0,76,0.00,,---,0.02,VWS V14.00,2013-03-30 07:45:00,
2013-03-29 21:50:00,71.4,63.5,30.07,ENE,63,0.0,3.0,76,0.00,,---,0.02,VWS V14.00,2013-03-30 07:50:00,
2013-03-29 21:55:00,71.4,63.5,30.07,ENE,63,0.0,3.0,76,0.00,,---,0.02,VWS V14.00,2013-03-30 07:55:00,
2013-03-29 22:00:00,71.3,63.3,30.07,ENE,63,0.0,3.0,76,0.00,,---,0.02,VWS V14.00,2013-03-30 08:00:00,
2013-03-29 22:05:00,71.3,63.7,30.07,ENE,63,0.0,0.0,77,0.00,,---,0.02,VWS V14.00,2013-03-30 08:05:00,
2013-03-29 22:10:00,71.3,63.7,30.07,ENE,63,0.0,0.0,77,0.00,,---,0.02,VWS V14.00,2013-03-30 08:10:00,
2013-03-29 22:15:00,71.3,63.7,30.07,ENE,63,0.0,1.0,77,0.00,,---,0.02,VWS V14.00,2013-03-30 08:15:00,
2013-03-29 22:20:00,71.2,63.6,30.07,ENE,63,0.0,1.0,77,0.00,,---,0.02,VWS V14.00,2013-03-30 08:20:00,
2013-03-29 22:25:00,71.2,63.6,30.07,ENE,63,0.0,1.0,77,0.00,,---,0.02,VWS V14.00,2013-03-30 08:25:00,
2013-03-29 22:30:00,71.1,63.5,30.07,ENE,63,1.0,2.0,77,0.00,,---,0.02,VWS V14.00,2013-03-30 08:30:00,
2013-03-29 22:35:00,71.1,63.5,30.07,ENE,63,0.0,0.0,77,0.00,,---,0.02,VWS V14.00,2013-03-30 08:35:00,
2013-03-29 22:40:00,71.1,63.5,30.07,ENE,63,0.0,0.0,77,0.00,,---,0.02,VWS V14.00,2013-03-30 08:40:00,
2013-03-29 22:45:00,71.1,63.5,30.07,ENE,63,0.0,2.0,77,0.00,,---,0.02,VWS V14.00,2013-03-30 08:45:00,
2013-03-29 22:50:00,71.1,63.5,30.07,ENE,63,0.0,2.0,77,0.00,,---,0.02,VWS V14.00,2013-03-30 08:50:00,
2013-03-29 22:55:00,71.2,63.6,30.07,ENE,63,0.0,2.0,77,0.00,,---,0.02,VWS V14.00,2013-03-30 08:55:00,
2013-03-29 23:00:00,71.2,64.0,30.07,ENE,63,0.0,3.0,78,0.00,,---,0.02,VWS V14.00,2013-03-30 09:00:00,
2013-03-29 23:05:00,71.2,64.0,30.07,ENE,63,0.0,0.0,78,0.00,,---,0.02,VWS V14.00,2013-03-30 09:05:00,
2013-03-29 23:10:00,71.2,64.0,30.07,ENE,63,0.0,0.0,78,0.00,,---,0.02,VWS V14.00,2013-03-30 09:10:00,
2013-03-29 23:15:00,71.1,63.9,30.07,ENE,63,0.0,0.0,78,0.00,,---,0.02,VWS V14.00,2013-03-30 09:15:00,
2013-03-29 23:20:00,71.0,63.8,30.07,ENE,63,0.0,0.0,78,0.00,,---,0.02,VWS V14.00,2013-03-30 09:20:00,
2013-03-29 23:25:00,71.0,63.8,30.07,ENE,63,0.0,0.0,78,0.00,,---,0.02,VWS V14.00,2013-03-30 09:25:00,
2013-03-29 23:30:00,71.0,64.2,30.07,ENE,63,0.0,0.0,79,0.00,,---,0.02,VWS V14.00,2013-03-30 09:30:00,
2013-03-29 23:34:00,71.0,64.2,30.07,ENE,63,0.0,0.0,79,0.00,,---,0.02,VWS V14.00,2013-03-30 09:34:00,
2013-03-29 23:39:00,70.9,64.1,30.06,ENE,63,0.0,0.0,79,0.00,,---,0.02,VWS V14.00,2013-03-30 09:39:00,
2013-03-29 23:44:00,70.8,64.0,30.06,ENE,63,0.0,0.0,79,0.00,,---,0.02,VWS V14.00,2013-03-30 09:44:00,
2013-03-29 23:49:00,70.8,64.0,30.06,ENE,63,0.0,0.0,79,0.00,,---,0.02,VWS V14.00,2013-03-30 09:49:00,
2013-03-29 23:54:00,70.8,64.0,30.06,ENE,63,0.0,0.0,79,0.00,,---,0.02,VWS V14.00,2013-03-30 09:54:00,
2013-03-29 23:59:00,70.7,63.9,30.06,ENE,63,0.0,0.0,79,0.00,,---,0.02,VWS V14.00,2013-03-30 09:59:00,